Invader — WDC6283 — position and weather

sailwx.info

Track history (hours):
 
Tides and Currents Weather Stations Pressure Air Temp Water Temp Dewpoint Dewpoint Depression Visibility Wind Speed Wind Dir Waves Ship Positions

Invader

Owner: Nautical Investiment Corporation, Amelia, LA. More information available from US FCC via Universal Licensing System and Coast Guard Vessel Documentation Center.

Last reported at 2015-Feb-27 17:12 UTC. Time now 2015-May-22 22:16 UTC.
Position N 29°41' W 091°06'.
Warning: this ship's position is months out of date.

Length 40 m; draft 3 m.

Type: Passenger vessel. MMSI: 367053990.

Date/timePositionNaut miles runAvg speedWind from/ knotsBaromVisibWave heightAir tempDewpointWater temp
2015-Feb-27 17:12N 29°41' W 091°06'0 0.0
2015-Feb-27 16:31N 29°41' W 091°06'0 0.0
2015-Feb-27 15:33N 29°41' W 091°06'0 0.0
2015-Feb-27 14:33N 29°41' W 091°06'0 0.0
2015-Feb-27 13:34N 29°41' W 091°06'0 0.0
2015-Feb-27 12:33N 29°41' W 091°06'0 0.0
2015-Feb-27 11:33N 29°41' W 091°06'0 0.0
2015-Feb-27 10:33N 29°41' W 091°06'0 0.0
2015-Feb-27 09:33N 29°41' W 091°06'0 0.0
2015-Feb-27 08:33N 29°41' W 091°06'0 0.0
2015-Feb-27 07:33N 29°41' W 091°06'0 0.0
2015-Feb-27 06:33N 29°41' W 091°06'0 0.0
2015-Feb-27 05:33N 29°41' W 091°06'0 0.0
2015-Feb-27 04:33N 29°41' W 091°06'0 0.0
2015-Feb-27 03:33N 29°41' W 091°06'0 0.0
2015-Feb-27 02:33N 29°41' W 091°06'0 0.0
2015-Feb-27 01:33N 29°41' W 091°06'0 0.0
2015-Feb-27 00:33N 29°41' W 091°06'0 0.0
2015-Feb-26 23:33N 29°41' W 091°06'0 0.0
2015-Feb-26 22:33N 29°41' W 091°06'0 0.0
2015-Feb-26 21:33N 29°41' W 091°06'0 0.0
2015-Feb-26 20:33N 29°41' W 091°06'0 0.0
2015-Feb-26 19:33N 29°41' W 091°06'0 0.0
2015-Feb-26 18:33N 29°41' W 091°06'0 0.0
2015-Feb-26 17:33N 29°41' W 091°06'0 0.0
2015-Feb-26 16:33N 29°41' W 091°06'2 2.4
2015-Feb-26 15:33N 29°40' W 091°08'4 4.0
2015-Feb-26 14:33N 29°41' W 091°12'2 2.5
2015-Feb-26 13:33N 29°40' W 091°14'2 2.5
2015-Feb-26 12:33N 29°41' W 091°12'0 0.1
2015-Feb-26 11:33N 29°41' W 091°12'1110.6
2015-Feb-26 10:33N 29°31' W 091°16'2316.5
2015-Feb-26 09:08N 29°12' W 091°32'16 1.3
2015-Feb-25 20:14N 29°25' W 091°20'1014.7
2015-Feb-25 19:34N 29°34' W 091°14'8 7.9
2015-Feb-25 18:33N 29°41' W 091°12'0 0.0
2015-Feb-25 17:33N 29°41' W 091°12'3 3.3
2015-Feb-25 16:33N 29°40' W 091°08'2 2.3
2015-Feb-25 15:33N 29°41' W 091°06'0 0.0
2015-Feb-25 14:33N 29°41' W 091°06'3 3.2
2015-Feb-25 13:33N 29°38' W 091°07'5 5.0
2015-Feb-25 12:33N 29°41' W 091°12'0 0.0
2015-Feb-25 11:33N 29°41' W 091°12'0 0.0
2015-Feb-25 10:33N 29°41' W 091°12'0 0.0
2015-Feb-25 09:33N 29°41' W 091°12'0 0.3
2015-Feb-25 08:34N 29°41' W 091°12'2 2.2
2015-Feb-25 07:33N 29°40' W 091°14'2 2.5
2015-Feb-25 06:33N 29°41' W 091°12'0 0.0
2015-Feb-25 05:33N 29°41' W 091°12'2 2.4
2015-Feb-25 04:33N 29°40' W 091°14'1212.2
2015-Feb-25 03:33N 29°28' W 091°17'10 0.5
2015-Feb-24 09:28N 29°21' W 091°24'1819.2
2015-Feb-24 08:33N 29°36' W 091°15'6 5.6
2015-Feb-24 07:33N 29°41' W 091°12'0 0.0
2015-Feb-24 06:33N 29°41' W 091°12'0 0.0
2015-Feb-24 05:34N 29°41' W 091°12'9 8.7
2015-Feb-24 04:33N 29°33' W 091°14'1312.6
2015-Feb-24 03:33N 29°23' W 091°23'1 0.0
2015-Feb-23 09:22N 29°23' W 091°22'1417.5
2015-Feb-23 08:33N 29°35' W 091°14'6 6.2
2015-Feb-23 07:33N 29°41' W 091°12'0 0.0
2015-Feb-23 06:33N 29°41' W 091°12'0 0.0
2015-Feb-23 05:33N 29°41' W 091°12'0 0.0
2015-Feb-23 04:33N 29°41' W 091°12'0 0.0
2015-Feb-23 03:33N 29°41' W 091°12'0 0.0
2015-Feb-23 02:33N 29°41' W 091°12'0 0.0
2015-Feb-23 01:33N 29°41' W 091°12'0 0.0
2015-Feb-23 00:33N 29°41' W 091°12'0 0.0
2015-Feb-22 23:33N 29°41' W 091°12'0 0.0
2015-Feb-22 22:33N 29°41' W 091°12'0 0.0
2015-Feb-22 21:33N 29°41' W 091°12'0 0.0
2015-Feb-22 20:33N 29°41' W 091°12'1 1.4
2015-Feb-22 19:33N 29°41' W 091°13'1413.8
2015-Feb-22 18:34N 29°27' W 091°17'1 0.1
2015-Feb-22 08:32N 29°27' W 091°18'1313.5
2015-Feb-22 07:34N 29°40' W 091°14'3 2.8
2015-Feb-22 06:33N 29°41' W 091°12'0 0.0
2015-Feb-22 05:34N 29°41' W 091°12'0 0.0
2015-Feb-22 04:33N 29°41' W 091°12'0 0.0
2015-Feb-22 03:34N 29°41' W 091°12'0 0.0
2015-Feb-22 02:33N 29°41' W 091°12'0 0.0
2015-Feb-22 01:33N 29°41' W 091°12'0 0.0
2015-Feb-22 00:34N 29°41' W 091°12'0 0.0
2015-Feb-21 23:33N 29°41' W 091°12'0 0.0
2015-Feb-21 22:33N 29°41' W 091°12'0 0.0
2015-Feb-21 21:34N 29°41' W 091°12'0 0.0
2015-Feb-21 20:33N 29°41' W 091°12'0 0.0
2015-Feb-21 19:34N 29°41' W 091°12'0 0.0
2015-Feb-21 18:33N 29°41' W 091°12'0 0.0
2015-Feb-21 17:33N 29°41' W 091°12'0 0.0
2015-Feb-21 16:33N 29°41' W 091°12'0 0.0
2015-Feb-21 15:34N 29°41' W 091°12'0 0.0
2015-Feb-21 14:33N 29°41' W 091°12'0 0.0
2015-Feb-21 13:33N 29°41' W 091°12'0 0.0
2015-Feb-21 12:34N 29°41' W 091°12'0 0.0
2015-Feb-21 11:33N 29°41' W 091°12'0 0.0
2015-Feb-21 10:33N 29°41' W 091°12'0 0.0
2015-Feb-21 09:34N 29°41' W 091°12'0 0.0
2015-Feb-21 08:34N 29°41' W 091°12'0 0.0
2015-Feb-21 07:33N 29°41' W 091°12'0 0.0
2015-Feb-21 06:33N 29°41' W 091°12'0 0.0
2015-Feb-21 05:33N 29°41' W 091°12'0 0.0
2015-Feb-21 04:33N 29°41' W 091°12'0 0.0
2015-Feb-21 03:34N 29°41' W 091°12'0 0.0
2015-Feb-21 02:33N 29°41' W 091°12'0 0.0
2015-Feb-21 01:33N 29°41' W 091°12'0 0.0
2015-Feb-21 00:34N 29°41' W 091°12'0 0.0
2015-Feb-20 23:33N 29°41' W 091°12'0 0.0
2015-Feb-20 22:33N 29°41' W 091°12'2 2.3
2015-Feb-20 21:33N 29°40' W 091°14'0 0.1
2015-Feb-20 20:34N 29°40' W 091°14'0 0.0
2015-Feb-20 19:34N 29°40' W 091°14'4 4.3
2015-Feb-20 18:34N 29°36' W 091°14'15 1.7
2015-Feb-20 09:33N 29°22' W 091°23'1615.6
2015-Feb-20 08:34N 29°36' W 091°15'6 5.6
2015-Feb-20 07:33N 29°41' W 091°12'0 0.0
2015-Feb-20 06:33N 29°41' W 091°12'0 0.0
2015-Feb-20 05:33N 29°41' W 091°12'0 0.0
2015-Feb-20 04:33N 29°41' W 091°12'0 0.0
2015-Feb-20 03:33N 29°41' W 091°12'0 0.0
2015-Feb-20 02:33N 29°41' W 091°12'0 0.0
2015-Feb-20 01:33N 29°41' W 091°12'0 0.0
2015-Feb-20 00:33N 29°41' W 091°12'0 0.0
2015-Feb-19 23:33N 29°41' W 091°12'0 0.0
2015-Feb-19 22:33N 29°41' W 091°12'0 0.0
2015-Feb-19 21:33N 29°41' W 091°12'0 0.0
2015-Feb-19 20:33N 29°41' W 091°12'0 0.0
2015-Feb-19 19:33N 29°41' W 091°12'0 0.0
2015-Feb-19 18:33N 29°41' W 091°12'0 0.0
2015-Feb-19 17:33N 29°41' W 091°12'2 1.9
2015-Feb-19 16:33N 29°40' W 091°14'1413.7
2015-Feb-19 15:33N 29°27' W 091°18'10 1.2
2015-Feb-19 07:33N 29°20' W 091°25'1717.1
2015-Feb-19 06:33N 29°34' W 091°14'8 7.9
2015-Feb-19 05:34N 29°41' W 091°12'0 0.0
2015-Feb-19 04:33N 29°41' W 091°12'0 0.0
2015-Feb-19 03:34N 29°41' W 091°12'0 0.0
2015-Feb-19 02:34N 29°41' W 091°12'0 0.0
2015-Feb-19 01:34N 29°41' W 091°12'0 0.0
2015-Feb-19 00:34N 29°41' W 091°12'0 0.0
2015-Feb-18 23:34N 29°41' W 091°12'0 0.0
2015-Feb-18 22:33N 29°41' W 091°12'0 0.0
2015-Feb-18 21:34N 29°41' W 091°12'0 0.4
2015-Feb-18 20:34N 29°41' W 091°12'9 9.0
2015-Feb-18 19:31N 29°32' W 091°16'6 0.6
2015-Feb-18 09:33N 29°27' W 091°19'1514.6
2015-Feb-18 08:33N 29°41' W 091°13'2 1.5
2015-Feb-18 07:33N 29°41' W 091°12'0 0.0
2015-Feb-18 06:33N 29°41' W 091°12'0 0.0
2015-Feb-18 05:33N 29°41' W 091°12'0 0.0
2015-Feb-18 04:33N 29°41' W 091°12'0 0.0
2015-Feb-18 03:33N 29°41' W 091°12'0 0.0
2015-Feb-18 02:33N 29°41' W 091°12'0 0.0
2015-Feb-18 01:33N 29°41' W 091°12'0 0.0
2015-Feb-18 00:33N 29°41' W 091°12'0 0.0
2015-Feb-17 23:33N 29°41' W 091°12'0 0.0
2015-Feb-17 22:33N 29°41' W 091°12'0 0.0
2015-Feb-17 21:33N 29°41' W 091°12'0 0.0
2015-Feb-17 20:33N 29°41' W 091°12'0 0.0
2015-Feb-17 19:33N 29°41' W 091°12'0 0.0
2015-Feb-17 17:33N 29°41' W 091°12'  
Track history (hours):
 
Tides and Currents Weather Stations Pressure Air Temp Water Temp Dewpoint Dewpoint Depression Visibility Wind Speed Wind Dir Waves Ship Positions

Invader

Owner: Nautical Investiment Corporation, Amelia, LA. More information available from US FCC via Universal Licensing System and Coast Guard Vessel Documentation Center.

Last reported at 2015-Feb-27 17:12 UTC. Time now 2015-May-22 22:16 UTC.
Position N 29°41' W 091°06'.
Warning: this ship's position is months out of date.

Length 40 m; draft 3 m.

Type: Passenger vessel. MMSI: 367053990.

Date/timePositionNaut miles runAvg speedWind from/ knotsBaromVisibWave heightAir tempDewpointWater temp
2015-Feb-27 17:12N 29°41' W 091°06'0 0.0
2015-Feb-27 16:31N 29°41' W 091°06'0 0.0
2015-Feb-27 15:33N 29°41' W 091°06'0 0.0
2015-Feb-27 14:33N 29°41' W 091°06'0 0.0
2015-Feb-27 13:34N 29°41' W 091°06'0 0.0
2015-Feb-27 12:33N 29°41' W 091°06'0 0.0
2015-Feb-27 11:33N 29°41' W 091°06'0 0.0
2015-Feb-27 10:33N 29°41' W 091°06'0 0.0
2015-Feb-27 09:33N 29°41' W 091°06'0 0.0
2015-Feb-27 08:33N 29°41' W 091°06'0 0.0
2015-Feb-27 07:33N 29°41' W 091°06'0 0.0
2015-Feb-27 06:33N 29°41' W 091°06'0 0.0
2015-Feb-27 05:33N 29°41' W 091°06'0 0.0
2015-Feb-27 04:33N 29°41' W 091°06'0 0.0
2015-Feb-27 03:33N 29°41' W 091°06'0 0.0
2015-Feb-27 02:33N 29°41' W 091°06'0 0.0
2015-Feb-27 01:33N 29°41' W 091°06'0 0.0
2015-Feb-27 00:33N 29°41' W 091°06'0 0.0
2015-Feb-26 23:33N 29°41' W 091°06'0 0.0
2015-Feb-26 22:33N 29°41' W 091°06'0 0.0
2015-Feb-26 21:33N 29°41' W 091°06'0 0.0
2015-Feb-26 20:33N 29°41' W 091°06'0 0.0
2015-Feb-26 19:33N 29°41' W 091°06'0 0.0
2015-Feb-26 18:33N 29°41' W 091°06'0 0.0
2015-Feb-26 17:33N 29°41' W 091°06'0 0.0
2015-Feb-26 16:33N 29°41' W 091°06'2 2.4
2015-Feb-26 15:33N 29°40' W 091°08'4 4.0
2015-Feb-26 14:33N 29°41' W 091°12'2 2.5
2015-Feb-26 13:33N 29°40' W 091°14'2 2.5
2015-Feb-26 12:33N 29°41' W 091°12'0 0.1
2015-Feb-26 11:33N 29°41' W 091°12'1110.6
2015-Feb-26 10:33N 29°31' W 091°16'2316.5
2015-Feb-26 09:08N 29°12' W 091°32'16 1.3
2015-Feb-25 20:14N 29°25' W 091°20'1014.7
2015-Feb-25 19:34N 29°34' W 091°14'8 7.9
2015-Feb-25 18:33N 29°41' W 091°12'0 0.0
2015-Feb-25 17:33N 29°41' W 091°12'3 3.3
2015-Feb-25 16:33N 29°40' W 091°08'2 2.3
2015-Feb-25 15:33N 29°41' W 091°06'0 0.0
2015-Feb-25 14:33N 29°41' W 091°06'3 3.2
2015-Feb-25 13:33N 29°38' W 091°07'5 5.0
2015-Feb-25 12:33N 29°41' W 091°12'0 0.0
2015-Feb-25 11:33N 29°41' W 091°12'0 0.0
2015-Feb-25 10:33N 29°41' W 091°12'0 0.0
2015-Feb-25 09:33N 29°41' W 091°12'0 0.3
2015-Feb-25 08:34N 29°41' W 091°12'2 2.2
2015-Feb-25 07:33N 29°40' W 091°14'2 2.5
2015-Feb-25 06:33N 29°41' W 091°12'0 0.0
2015-Feb-25 05:33N 29°41' W 091°12'2 2.4
2015-Feb-25 04:33N 29°40' W 091°14'1212.2
2015-Feb-25 03:33N 29°28' W 091°17'10 0.5
2015-Feb-24 09:28N 29°21' W 091°24'1819.2
2015-Feb-24 08:33N 29°36' W 091°15'6 5.6
2015-Feb-24 07:33N 29°41' W 091°12'0 0.0
2015-Feb-24 06:33N 29°41' W 091°12'0 0.0
2015-Feb-24 05:34N 29°41' W 091°12'9 8.7
2015-Feb-24 04:33N 29°33' W 091°14'1312.6
2015-Feb-24 03:33N 29°23' W 091°23'1 0.0
2015-Feb-23 09:22N 29°23' W 091°22'1417.5
2015-Feb-23 08:33N 29°35' W 091°14'6 6.2
2015-Feb-23 07:33N 29°41' W 091°12'0 0.0
2015-Feb-23 06:33N 29°41' W 091°12'0 0.0
2015-Feb-23 05:33N 29°41' W 091°12'0 0.0
2015-Feb-23 04:33N 29°41' W 091°12'0 0.0
2015-Feb-23 03:33N 29°41' W 091°12'0 0.0
2015-Feb-23 02:33N 29°41' W 091°12'0 0.0
2015-Feb-23 01:33N 29°41' W 091°12'0 0.0
2015-Feb-23 00:33N 29°41' W 091°12'0 0.0
2015-Feb-22 23:33N 29°41' W 091°12'0 0.0
2015-Feb-22 22:33N 29°41' W 091°12'0 0.0
2015-Feb-22 21:33N 29°41' W 091°12'0 0.0
2015-Feb-22 20:33N 29°41' W 091°12'1 1.4
2015-Feb-22 19:33N 29°41' W 091°13'1413.8
2015-Feb-22 18:34N 29°27' W 091°17'1 0.1
2015-Feb-22 08:32N 29°27' W 091°18'1313.5
2015-Feb-22 07:34N 29°40' W 091°14'3 2.8
2015-Feb-22 06:33N 29°41' W 091°12'0 0.0
2015-Feb-22 05:34N 29°41' W 091°12'0 0.0
2015-Feb-22 04:33N 29°41' W 091°12'0 0.0
2015-Feb-22 03:34N 29°41' W 091°12'0 0.0
2015-Feb-22 02:33N 29°41' W 091°12'0 0.0
2015-Feb-22 01:33N 29°41' W 091°12'0 0.0
2015-Feb-22 00:34N 29°41' W 091°12'0 0.0
2015-Feb-21 23:33N 29°41' W 091°12'0 0.0
2015-Feb-21 22:33N 29°41' W 091°12'0 0.0
2015-Feb-21 21:34N 29°41' W 091°12'0 0.0
2015-Feb-21 20:33N 29°41' W 091°12'0 0.0
2015-Feb-21 19:34N 29°41' W 091°12'0 0.0
2015-Feb-21 18:33N 29°41' W 091°12'0 0.0
2015-Feb-21 17:33N 29°41' W 091°12'0 0.0
2015-Feb-21 16:33N 29°41' W 091°12'0 0.0
2015-Feb-21 15:34N 29°41' W 091°12'0 0.0
2015-Feb-21 14:33N 29°41' W 091°12'0 0.0
2015-Feb-21 13:33N 29°41' W 091°12'0 0.0
2015-Feb-21 12:34N 29°41' W 091°12'0 0.0
2015-Feb-21 11:33N 29°41' W 091°12'0 0.0
2015-Feb-21 10:33N 29°41' W 091°12'0 0.0
2015-Feb-21 09:34N 29°41' W 091°12'0 0.0
2015-Feb-21 08:34N 29°41' W 091°12'0 0.0
2015-Feb-21 07:33N 29°41' W 091°12'0 0.0
2015-Feb-21 06:33N 29°41' W 091°12'0 0.0
2015-Feb-21 05:33N 29°41' W 091°12'0 0.0
2015-Feb-21 04:33N 29°41' W 091°12'0 0.0
2015-Feb-21 03:34N 29°41' W 091°12'0 0.0
2015-Feb-21 02:33N 29°41' W 091°12'0 0.0
2015-Feb-21 01:33N 29°41' W 091°12'0 0.0
2015-Feb-21 00:34N 29°41' W 091°12'0 0.0
2015-Feb-20 23:33N 29°41' W 091°12'0 0.0
2015-Feb-20 22:33N 29°41' W 091°12'2 2.3
2015-Feb-20 21:33N 29°40' W 091°14'0 0.1
2015-Feb-20 20:34N 29°40' W 091°14'0 0.0
2015-Feb-20 19:34N 29°40' W 091°14'4 4.3
2015-Feb-20 18:34N 29°36' W 091°14'15 1.7
2015-Feb-20 09:33N 29°22' W 091°23'1615.6
2015-Feb-20 08:34N 29°36' W 091°15'6 5.6
2015-Feb-20 07:33N 29°41' W 091°12'0 0.0
2015-Feb-20 06:33N 29°41' W 091°12'0 0.0
2015-Feb-20 05:33N 29°41' W 091°12'0 0.0
2015-Feb-20 04:33N 29°41' W 091°12'0 0.0
2015-Feb-20 03:33N 29°41' W 091°12'0 0.0
2015-Feb-20 02:33N 29°41' W 091°12'0 0.0
2015-Feb-20 01:33N 29°41' W 091°12'0 0.0
2015-Feb-20 00:33N 29°41' W 091°12'0 0.0
2015-Feb-19 23:33N 29°41' W 091°12'0 0.0
2015-Feb-19 22:33N 29°41' W 091°12'0 0.0
2015-Feb-19 21:33N 29°41' W 091°12'0 0.0
2015-Feb-19 20:33N 29°41' W 091°12'0 0.0
2015-Feb-19 19:33N 29°41' W 091°12'0 0.0
2015-Feb-19 18:33N 29°41' W 091°12'0 0.0
2015-Feb-19 17:33N 29°41' W 091°12'2 1.9
2015-Feb-19 16:33N 29°40' W 091°14'1413.7
2015-Feb-19 15:33N 29°27' W 091°18'10 1.2
2015-Feb-19 07:33N 29°20' W 091°25'1717.1
2015-Feb-19 06:33N 29°34' W 091°14'8 7.9
2015-Feb-19 05:34N 29°41' W 091°12'0 0.0
2015-Feb-19 04:33N 29°41' W 091°12'0 0.0
2015-Feb-19 03:34N 29°41' W 091°12'0 0.0
2015-Feb-19 02:34N 29°41' W 091°12'0 0.0
2015-Feb-19 01:34N 29°41' W 091°12'0 0.0
2015-Feb-19 00:34N 29°41' W 091°12'0 0.0
2015-Feb-18 23:34N 29°41' W 091°12'0 0.0
2015-Feb-18 22:33N 29°41' W 091°12'0 0.0
2015-Feb-18 21:34N 29°41' W 091°12'0 0.4
2015-Feb-18 20:34N 29°41' W 091°12'9 9.0
2015-Feb-18 19:31N 29°32' W 091°16'6 0.6
2015-Feb-18 09:33N 29°27' W 091°19'1514.6
2015-Feb-18 08:33N 29°41' W 091°13'2 1.5
2015-Feb-18 07:33N 29°41' W 091°12'0 0.0
2015-Feb-18 06:33N 29°41' W 091°12'0 0.0
2015-Feb-18 05:33N 29°41' W 091°12'0 0.0
2015-Feb-18 04:33N 29°41' W 091°12'0 0.0
2015-Feb-18 03:33N 29°41' W 091°12'0 0.0
2015-Feb-18 02:33N 29°41' W 091°12'0 0.0
2015-Feb-18 01:33N 29°41' W 091°12'0 0.0
2015-Feb-18 00:33N 29°41' W 091°12'0 0.0
2015-Feb-17 23:33N 29°41' W 091°12'0 0.0
2015-Feb-17 22:33N 29°41' W 091°12'0 0.0
2015-Feb-17 21:33N 29°41' W 091°12'0 0.0
2015-Feb-17 20:33N 29°41' W 091°12'0 0.0
2015-Feb-17 19:33N 29°41' W 091°12'0 0.0
2015-Feb-17 17:33N 29°41' W 091°12'  

Dump ship's entire track history